»·PEaware :: QXE2462 KSEA-KBZN

QXE2462 :: KSEA-KBZN

FLIGHT INFORMATION

Flight Status: Arrived
Operator:
Horizon Air
More flights by this operator :: More flights under this callsign
Pilot: David F. (17152)
Aircraft: EMBRAER EMB-170/175
(E170)
More flights by this aircraft type
Origin: KSEA Seattle-Tacoma Intl
United States
Destination: KBZN Gallatin
United States
More flights between these airports :: More routes between these airports
Route: +SEA7 NORMY MODDA STEVS BZN
File this flight plan on PilotEdge
Remarks: RMK / SIMBRIEF
Altitude:
(Current/Filed)
33,000ft
Speed:
(Current/Filed)
401kts
Departed: 13-May-20 06:00 PM
Arrived: 13-May-20 07:38 PM
Distance/Time
Traveled:
470nm/1:38
Distance/Time
To Go:
Arrived

Flight Plot

Page will automatically refresh every two minutes.

Flight plan parsing failed; only flown route is shown


Map Options




Map Legend


Flown Route
Filed Route
Departure Airport
Arrival Airport
Navaid (VOR, NDB)
Fix

Horizontal Profiles

Position Reports

Time Latitude Longitude Heading Altitude Ground
Speed
13-May-20 16:58 47.443943 -122.304448 129 392ft 0kts
13-May-20 16:59 47.443943 -122.304448 129 392ft 0kts
13-May-20 17:00 47.443943 -122.304448 129 392ft 0kts
13-May-20 17:01 47.443943 -122.304448 129 392ft 0kts
13-May-20 17:02 47.443943 -122.304448 129 392ft 0kts
13-May-20 17:03 47.443943 -122.304448 129 392ft 0kts
13-May-20 17:04 47.443943 -122.304448 129 392ft 0kts
13-May-20 17:05 47.443943 -122.304448 129 392ft 0kts
13-May-20 17:06 47.443943 -122.304448 129 392ft 0kts
13-May-20 17:07 47.443943 -122.304448 129 392ft 0kts
13-May-20 17:08 47.443943 -122.304448 129 392ft 0kts
13-May-20 17:09 47.443943 -122.304448 129 392ft 0kts
13-May-20 17:10 47.443943 -122.304448 129 392ft 0kts
13-May-20 17:11 47.443943 -122.304448 129 392ft 0kts
13-May-20 17:12 47.443943 -122.304448 129 392ft 0kts
13-May-20 17:13 47.443943 -122.304448 129 392ft 0kts
13-May-20 17:14 47.443943 -122.304448 129 392ft 0kts
13-May-20 17:15 47.443943 -122.304448 129 392ft 0kts
13-May-20 17:16 47.443943 -122.304448 129 392ft 0kts
13-May-20 17:17 47.443943 -122.304448 129 392ft 0kts
13-May-20 17:18 47.443943 -122.304448 129 392ft 0kts
13-May-20 17:19 47.443943 -122.304448 129 392ft 0kts
13-May-20 17:20 47.443943 -122.304448 129 392ft 0kts
13-May-20 17:21 47.443943 -122.304448 129 392ft 0kts
13-May-20 17:22 47.443943 -122.304448 129 392ft 0kts
13-May-20 17:23 47.443943 -122.304448 129 392ft 0kts
13-May-20 17:24 47.443943 -122.304448 129 392ft 0kts
13-May-20 17:25 47.443943 -122.304448 129 392ft 0kts
13-May-20 17:26 47.443943 -122.304448 129 392ft 0kts
13-May-20 17:27 47.443943 -122.304448 129 392ft 0kts
13-May-20 17:28 47.443943 -122.304448 129 392ft 0kts
13-May-20 17:29 47.443943 -122.304448 129 392ft 0kts
13-May-20 17:30 47.443943 -122.304448 129 392ft 0kts
13-May-20 17:31 47.443943 -122.304448 129 392ft 0kts
13-May-20 17:32 47.443943 -122.304448 129 392ft 0kts
13-May-20 17:33 47.443943 -122.304448 129 392ft 0kts
13-May-20 17:34 47.443943 -122.304448 129 392ft 0kts
13-May-20 17:35 47.443943 -122.304448 129 392ft 0kts
13-May-20 17:36 47.443943 -122.304448 129 392ft 0kts
13-May-20 17:37 47.443943 -122.304448 129 392ft 0kts
13-May-20 17:38 47.443958 -122.304476 127 392ft 2kts
13-May-20 17:39 47.444016 -122.305034 69 393ft 2kts
13-May-20 17:40 47.443732 -122.305419 13 392ft 2kts
13-May-20 17:41 47.443578 -122.305437 358 392ft 0kts
13-May-20 17:42 47.443578 -122.305437 358 392ft 0kts
13-May-20 17:43 47.443578 -122.305437 358 392ft 0kts
13-May-20 17:44 47.443578 -122.305437 358 392ft 0kts
13-May-20 17:45 47.443578 -122.305437 358 392ft 0kts
13-May-20 17:46 47.445094 -122.305423 359 396ft 19kts
13-May-20 17:47 47.448838 -122.305409 5 407ft 21kts
13-May-20 17:48 47.452272 -122.305022 0 425ft 17kts
13-May-20 17:49 47.455833 -122.304992 1 434ft 25kts
13-May-20 17:50 47.460678 -122.304948 0 468ft 25kts
13-May-20 17:51 47.463650 -122.306254 298 417ft 2kts
13-May-20 17:52 47.463667 -122.306303 298 416ft 0kts
13-May-20 17:53 47.463667 -122.306303 298 416ft 0kts
13-May-20 17:54 47.463667 -122.306303 298 416ft 0kts
13-May-20 17:55 47.463667 -122.306303 298 416ft 0kts
13-May-20 17:56 47.463667 -122.306303 298 416ft 0kts
13-May-20 17:57 47.463667 -122.306303 298 416ft 0kts
13-May-20 17:58 47.463667 -122.306303 298 416ft 0kts
13-May-20 17:59 47.460785 -122.307765 178 436ft 61kts
13-May-20 18:00 47.441181 -122.307957 182 631ft 160kts
13-May-20 18:01 47.405060 -122.307411 180 1169ft 235kts
13-May-20 18:02 47.358015 -122.306065 180 2430ft 246kts
13-May-20 18:03 47.314389 -122.304438 180 3598ft 220kts
13-May-20 18:04 47.269862 -122.302324 180 4880ft 252kts
13-May-20 18:05 47.227693 -122.266263 116 6189ft 280kts
13-May-20 18:06 47.236221 -122.198147 53 7586ft 263kts
13-May-20 18:07 47.267146 -122.131459 57 9077ft 269kts
13-May-20 18:08 47.296047 -122.064289 58 10330ft 272kts
13-May-20 18:09 47.331069 -121.982848 58 12032ft 288kts
13-May-20 18:10 47.361834 -121.911354 58 13319ft 302kts
13-May-20 18:11 47.393853 -121.836909 58 14456ft 320kts
13-May-20 18:12 47.424875 -121.754157 71 15535ft 339kts
13-May-20 18:13 47.427221 -121.655202 99 16636ft 359kts
13-May-20 18:14 47.414896 -121.550685 100 17741ft 371kts
13-May-20 18:15 47.402499 -121.436192 99 18967ft 386kts
13-May-20 18:16 47.391539 -121.325505 99 20648ft 392kts
13-May-20 18:17 47.380508 -121.212656 99 22085ft 400kts
13-May-20 18:18 47.367812 -121.084220 99 23413ft 411kts
13-May-20 18:19 47.354666 -120.953181 99 24624ft 420kts
13-May-20 18:20 47.340822 -120.817073 99 25782ft 427kts
13-May-20 18:21 47.326547 -120.678711 99 26808ft 433kts
13-May-20 18:22 47.312314 -120.542768 99 27687ft 439kts
13-May-20 18:23 47.297305 -120.401293 99 28501ft 444kts
13-May-20 18:24 47.284038 -120.277090 99 29153ft 448kts
13-May-20 18:25 47.270494 -120.150455 99 29748ft 452kts
13-May-20 18:26 47.255663 -120.013458 99 30338ft 456kts
13-May-20 18:27 47.239856 -119.870377 99 30894ft 459kts
13-May-20 18:29 47.222879 -119.719209 99 31421ft 462kts
13-May-20 18:30 47.206016 -119.570761 100 32047ft 460kts
13-May-20 18:31 47.189452 -119.426005 99 32621ft 458kts
13-May-20 18:32 47.173292 -119.286215 100 32864ft 458kts
13-May-20 18:33 47.151464 -119.098848 100 32870ft 457kts
13-May-20 18:34 47.129038 -118.910087 100 32868ft 455kts
13-May-20 18:35 47.106815 -118.726966 100 32872ft 456kts
13-May-20 18:36 47.085222 -118.550909 99 32869ft 456kts
13-May-20 18:37 47.064189 -118.380925 99 32903ft 455kts
13-May-20 18:38 47.044867 -118.226539 100 32917ft 455kts
13-May-20 18:39 47.025827 -118.076133 100 32916ft 453kts
13-May-20 18:40 47.006816 -117.927490 101 32920ft 452kts
13-May-20 18:41 46.987216 -117.776561 101 32930ft 452kts
13-May-20 18:42 46.966036 -117.615674 102 32949ft 453kts
13-May-20 18:43 46.946102 -117.465937 102 32951ft 457kts
13-May-20 18:44 46.925725 -117.314081 103 32949ft 463kts
13-May-20 18:45 46.902121 -117.138717 103 32950ft 470kts
13-May-20 18:45 46.884807 -117.015177 103 32962ft 480kts
13-May-20 18:46 46.861618 -116.855994 103 32952ft 473kts
13-May-20 18:48 46.835300 -116.670362 102 32953ft 475kts
13-May-20 18:48 46.817084 -116.541202 102 32953ft 474kts
13-May-20 18:49 46.793803 -116.380871 103 32941ft 473kts
13-May-20 18:51 46.769329 -116.213399 103 32956ft 473kts
13-May-20 18:51 46.752028 -116.093892 103 32974ft 474kts
13-May-20 18:52 46.730542 -115.946756 103 32972ft 473kts
13-May-20 18:53 46.708750 -115.799932 103 32972ft 473kts
13-May-20 18:54 46.687226 -115.656552 103 32973ft 472kts
13-May-20 18:55 46.665580 -115.513645 103 32973ft 473kts
13-May-20 18:56 46.643652 -115.369864 103 32311ft 469kts
13-May-20 18:57 46.624479 -115.244336 104 31493ft 465kts
13-May-20 18:58 46.604277 -115.112560 103 30610ft 460kts
13-May-20 18:59 46.583959 -114.982406 103 29756ft 458kts
13-May-20 19:00 46.564294 -114.857905 103 28923ft 453kts
13-May-20 19:01 46.543788 -114.728982 103 28048ft 447kts
13-May-20 19:02 46.523011 -114.598896 103 27155ft 440kts
13-May-20 19:03 46.503925 -114.480220 103 26331ft 436kts
13-May-20 19:04 46.483976 -114.357369 103 25553ft 472kts
13-May-20 19:05 46.464069 -114.235523 103 24726ft 451kts
13-May-20 19:06 46.443563 -114.110067 103 23876ft 449kts
13-May-20 19:07 46.422451 -113.982026 103 22988ft 446kts
13-May-20 19:08 46.402317 -113.861669 103 22170ft 447kts
13-May-20 19:09 46.382799 -113.745925 103 21338ft 423kts
13-May-20 19:10 46.363279 -113.630867 103 20497ft 418kts
13-May-20 19:11 46.344014 -113.518045 103 19666ft 412kts
13-May-20 19:12 46.325043 -113.407637 103 18822ft 395kts
13-May-20 19:13 46.307259 -113.304428 104 17994ft 384kts
13-May-20 19:14 46.288883 -113.197712 104 17132ft 378kts
13-May-20 19:15 46.270830 -113.093681 104 17029ft 377kts
13-May-20 19:16 46.252358 -112.988455 104 17027ft 378kts
13-May-20 19:17 46.232302 -112.875299 104 17028ft 381kts
13-May-20 19:18 46.212628 -112.765141 104 17026ft 383kts
13-May-20 19:19 46.191839 -112.648991 104 17029ft 382kts
13-May-20 19:20 46.171721 -112.537239 104 17029ft 382kts
13-May-20 19:21 46.152078 -112.428816 104 17029ft 382kts
13-May-20 19:22 46.132183 -112.319722 105 16710ft 390kts
13-May-20 19:23 46.112296 -112.210548 105 15657ft 372kts
13-May-20 19:24 46.092978 -112.105241 104 14642ft 355kts
13-May-20 19:25 46.074273 -112.004269 105 13674ft 339kts
13-May-20 19:26 46.056214 -111.907765 104 12761ft 328kts
13-May-20 19:27 46.037675 -111.809365 104 11837ft 319kts
13-May-20 19:28 46.018894 -111.709800 104 10888ft 312kts
13-May-20 19:29 45.992111 -111.607020 121 9862ft 305kts
13-May-20 19:30 45.955146 -111.526368 121 9000ft 295kts
13-May-20 19:31 45.920929 -111.448703 121 8221ft 287kts
13-May-20 19:32 45.888322 -111.378566 121 7380ft 282kts
13-May-20 19:33 45.865536 -111.304586 98 6864ft 261kts
13-May-20 19:34 45.838627 -111.235400 140 6258ft 225kts
13-May-20 19:35 45.808846 -111.195390 133 5300ft 156kts
13-May-20 19:36 45.788372 -111.166843 134 4478ft 130kts
13-May-20 19:37 45.776121 -111.149879 137 4461ft 32kts
13-May-20 19:38 45.774142 -111.150848 249 4467ft 6kts
13-May-20 19:39 45.776512 -111.154551 315 4461ft 19kts
13-May-20 19:40 45.779260 -111.159306 237 4457ft 10kts
13-May-20 19:41 45.778769 -111.160509 225 4459ft 0kts
13-May-20 19:42 45.778763 -111.160518 225 4459ft 0kts
13-May-20 19:43 45.778763 -111.160518 225 4459ft 0kts
13-May-20 19:44 45.778763 -111.160518 225 4459ft 0kts
13-May-20 19:45 45.778763 -111.160518 225 4459ft 0kts
13-May-20 19:46 45.778763 -111.160518 225 4459ft 0kts

Navigation Log

Ident Type
Flight plan parsing failed, navigation log unavailable